Time;durP1;ratioP1;P1;durP2;ratioP2;P2;SDS_P1;SDS_P2;PMS_P1;PMS_P2;Temp;Humidity;BMP_temperature;BMP_pressure;BME280_temperature;BME280_humidity;BME280_pressure;Samples;Min_cycle;Max_cycle;Signal;HPM_P1;HPM_P2
2023/12/13 00:01:25;;;;;;;0.20;0.20;;;8.00;99.90;;;;;;5105278;28;20047;-78
2023/12/13 00:03:52;;;;;;;0.10;0.10;;;8.00;99.90;;;;;;5108377;28;20040;-79
2023/12/13 00:06:17;;;;;;;0.20;0.20;;;8.00;99.90;;;;;;5107263;28;20051;-79
2023/12/13 00:08:45;;;;;;;0.20;0.20;;;8.00;99.90;;;;;;5099678;28;20054;-79
2023/12/13 00:11:11;;;;;;;0.20;0.20;;;8.00;99.90;;;;;;5106045;28;20126;-79
2023/12/13 00:13:37;;;;;;;0.20;0.20;;;8.10;99.90;;;;;;5106757;28;20440;-79
2023/12/13 00:16:03;;;;;;;0.20;0.20;;;8.00;99.90;;;;;;5103149;28;20047;-79
2023/12/13 00:18:29;;;;;;;0.20;0.20;;;8.00;99.90;;;;;;5099001;28;20441;-79
2023/12/13 00:20:55;;;;;;;0.20;0.20;;;8.00;99.90;;;;;;5097631;28;20105;-78
2023/12/13 00:23:21;;;;;;;0.20;0.20;;;8.10;99.90;;;;;;5106009;27;20470;-78
2023/12/13 00:25:47;;;;;;;0.13;0.13;;;8.10;99.90;;;;;;5107501;28;20076;-78
2023/12/13 00:28:13;;;;;;;0.20;0.20;;;8.00;99.90;;;;;;5106312;28;20079;-78
2023/12/13 00:30:38;;;;;;;0.10;0.10;;;8.00;99.90;;;;;;5108204;28;20085;-79
2023/12/13 00:33:04;;;;;;;0.20;0.20;;;8.10;99.90;;;;;;5106485;28;20097;-79
2023/12/13 00:35:30;;;;;;;0.20;0.20;;;8.00;99.90;;;;;;5107581;28;20075;-79
2023/12/13 00:37:55;;;;;;;0.20;0.20;;;8.10;99.90;;;;;;5104564;28;20050;-78
2023/12/13 00:40:22;;;;;;;0.20;0.20;;;8.10;99.90;;;;;;5096829;28;20036;-78
2023/12/13 00:42:48;;;;;;;0.17;0.17;;;8.10;99.90;;;;;;5098084;28;20180;-79
2023/12/13 00:45:14;;;;;;;0.20;0.20;;;8.10;99.90;;;;;;5106598;28;20079;-78
2023/12/13 00:47:41;;;;;;;0.20;0.20;;;8.10;99.90;;;;;;5099195;28;20075;-78
2023/12/13 00:50:07;;;;;;;0.20;0.20;;;8.10;99.90;;;;;;5121649;27;20074;-77
2023/12/13 00:52:33;;;;;;;0.20;0.20;;;8.00;99.90;;;;;;5106525;28;20071;-79
2023/12/13 00:55:05;;;;;;;0.20;0.20;;;8.00;99.90;;;;;;5108751;28;20082;-79
2023/12/13 00:57:31;;;;;;;0.20;0.20;;;8.00;99.90;;;;;;5106804;28;20740;-80
2023/12/13 00:59:57;;;;;;;0.20;0.20;;;8.00;99.90;;;;;;5107576;28;20047;-80
2023/12/13 01:02:23;;;;;;;0.20;0.20;;;8.00;99.90;;;;;;5119538;27;20556;-79
2023/12/13 01:04:48;;;;;;;0.20;0.20;;;8.00;99.90;;;;;;5106982;28;20157;-79
2023/12/13 01:07:14;;;;;;;0.15;0.15;;;8.00;99.90;;;;;;5105450;28;20566;-79
2023/12/13 01:09:40;;;;;;;0.20;0.20;;;8.00;99.90;;;;;;5104260;28;20039;-79
2023/12/13 01:12:06;;;;;;;0.20;0.20;;;8.00;99.90;;;;;;5102586;28;20036;-79
2023/12/13 01:14:33;;;;;;;0.10;0.10;;;8.00;99.90;;;;;;5108552;28;20139;-78
2023/12/13 01:16:59;;;;;;;0.20;0.20;;;8.00;99.90;;;;;;5105990;28;20043;-79
2023/12/13 01:19:25;;;;;;;0.20;0.20;;;8.10;99.90;;;;;;5102086;28;20055;-79
2023/12/13 01:21:51;;;;;;;0.20;0.20;;;8.00;99.90;;;;;;5102414;28;20119;-80
2023/12/13 01:24:16;;;;;;;0.20;0.20;;;8.00;99.90;;;;;;5120520;28;20579;-80
2023/12/13 01:26:42;;;;;;;0.20;0.20;;;8.00;99.90;;;;;;5108472;28;20063;-80
2023/12/13 01:29:08;;;;;;;0.20;0.20;;;8.00;99.90;;;;;;5107864;28;20419;-80
2023/12/13 01:31:35;;;;;;;0.20;0.20;;;8.00;99.90;;;;;;5105883;28;20811;-81
2023/12/13 01:34:02;;;;;;;0.20;0.20;;;8.00;99.90;;;;;;5107494;28;20039;-80
2023/12/13 01:36:28;;;;;;;0.20;0.20;;;7.90;99.90;;;;;;5105655;28;20032;-78
2023/12/13 01:38:54;;;;;;;0.13;0.13;;;8.00;99.90;;;;;;5102694;28;20036;-78
2023/12/13 01:41:19;;;;;;;0.20;0.20;;;8.00;99.90;;;;;;5102133;28;20074;-78
2023/12/13 01:43:45;;;;;;;0.20;0.20;;;8.00;99.90;;;;;;5096092;28;20039;-78
2023/12/13 01:46:12;;;;;;;0.20;0.20;;;8.00;99.90;;;;;;5104623;28;20086;-78
2023/12/13 01:48:39;;;;;;;0.20;0.20;;;8.10;99.90;;;;;;5102881;28;20044;-79
2023/12/13 01:51:06;;;;;;;0.20;0.20;;;8.10;99.90;;;;;;5108347;28;20058;-78
2023/12/13 01:53:34;;;;;;;0.20;0.20;;;8.00;99.90;;;;;;5106548;28;20043;-78
2023/12/13 01:56:01;;;;;;;0.20;0.20;;;8.00;99.90;;;;;;5105196;28;20035;-79
2023/12/13 01:58:27;;;;;;;0.20;0.20;;;8.00;99.90;;;;;;5115691;27;20118;-78
2023/12/13 02:00:55;;;;;;;0.20;0.20;;;8.00;99.90;;;;;;5108808;28;20043;-78
2023/12/13 02:03:24;;;;;;;0.20;0.20;;;8.10;99.90;;;;;;5109647;28;20109;-78
2023/12/13 02:05:52;;;;;;;0.20;0.20;;;8.10;99.90;;;;;;5111648;28;20398;-79
2023/12/13 02:08:18;;;;;;;0.20;0.20;;;8.10;99.90;;;;;;5102186;28;20078;-79
2023/12/13 02:10:45;;;;;;;0.20;0.20;;;8.00;99.90;;;;;;5111126;28;20055;-80
2023/12/13 02:13:13;;;;;;;0.20;0.20;;;8.10;99.90;;;;;;5111072;28;20427;-79
2023/12/13 02:15:39;;;;;;;0.20;0.20;;;8.10;99.90;;;;;;5095574;28;20085;-79
2023/12/13 02:18:06;;;;;;;0.20;0.20;;;8.10;99.90;;;;;;5104215;28;20487;-79
2023/12/13 02:20:32;;;;;;;0.20;0.20;;;8.10;99.90;;;;;;5105767;28;20040;-78
2023/12/13 02:22:57;;;;;;;0.20;0.20;;;8.20;99.90;;;;;;5118968;27;20056;-78
2023/12/13 02:25:53;;;;;;;0.20;0.20;;;8.10;99.90;;;;;;5109263;28;20051;-78
2023/12/13 02:28:18;;;;;;;0.13;0.13;;;8.10;99.90;;;;;;5092559;28;20109;-79
2023/12/13 02:30:46;;;;;;;0.15;0.15;;;8.10;99.90;;;;;;5104619;28;20090;-77
2023/12/13 02:33:11;;;;;;;0.20;0.20;;;8.30;99.90;;;;;;5108482;28;20058;-78
2023/12/13 02:35:37;;;;;;;0.20;0.20;;;8.20;99.90;;;;;;5112287;27;20035;-78
2023/12/13 02:38:03;;;;;;;0.20;0.20;;;8.20;99.90;;;;;;5108801;28;20054;-78
2023/12/13 02:40:28;;;;;;;0.15;0.15;;;8.20;99.90;;;;;;5113451;27;20067;-78
2023/12/13 02:42:55;;;;;;;0.15;0.15;;;8.20;99.90;;;;;;5099220;28;20608;-77
2023/12/13 02:45:20;;;;;;;0.20;0.20;;;8.30;99.90;;;;;;5108122;27;20519;-77
2023/12/13 02:47:46;;;;;;;0.20;0.20;;;8.20;99.90;;;;;;5112156;27;20117;-77
2023/12/13 02:50:13;;;;;;;0.17;0.17;;;8.20;99.90;;;;;;5108552;28;20080;-78
2023/12/13 02:52:40;;;;;;;0.20;0.20;;;8.30;99.90;;;;;;5110157;28;20047;-79
2023/12/13 02:55:09;;;;;;;0.20;0.20;;;8.20;99.90;;;;;;5109296;28;20078;-79
2023/12/13 02:57:34;;;;;;;0.20;0.20;;;8.30;99.90;;;;;;5107138;28;20051;-78
2023/12/13 03:00:00;;;;;;;0.20;0.20;;;8.30;99.90;;;;;;5109122;28;20050;-78
2023/12/13 03:02:26;;;;;;;0.20;0.20;;;8.30;99.90;;;;;;5107472;28;20044;-79
2023/12/13 03:04:52;;;;;;;0.20;0.20;;;8.30;99.90;;;;;;5108173;28;20056;-78
2023/12/13 03:07:18;;;;;;;0.13;0.13;;;8.20;99.90;;;;;;5106617;28;20063;-78
2023/12/13 03:09:44;;;;;;;0.20;0.20;;;8.40;99.90;;;;;;5091692;28;20533;-78
2023/12/13 03:12:10;;;;;;;0.20;0.20;;;8.30;99.90;;;;;;5106690;28;20043;-78
2023/12/13 03:14:36;;;;;;;0.20;0.20;;;8.30;99.90;;;;;;5109378;28;20165;-78
2023/12/13 03:17:01;;;;;;;0.20;0.20;;;8.30;99.90;;;;;;5099460;28;20047;-78
2023/12/13 03:19:27;;;;;;;0.20;0.20;;;8.30;99.90;;;;;;5116650;27;20044;-78
2023/12/13 03:21:53;;;;;;;0.20;0.20;;;8.30;99.90;;;;;;5097577;28;20054;-78
2023/12/13 03:24:18;;;;;;;0.20;0.20;;;8.20;99.90;;;;;;5091875;28;20048;-78
2023/12/13 03:26:44;;;;;;;0.20;0.20;;;8.30;99.90;;;;;;5106827;27;20114;-78
2023/12/13 03:29:10;;;;;;;0.20;0.20;;;8.30;99.90;;;;;;5101518;28;20058;-79
2023/12/13 03:31:35;;;;;;;0.20;0.20;;;8.40;99.90;;;;;;5107823;28;20043;-77
2023/12/13 03:34:01;;;;;;;0.20;0.20;;;8.30;99.90;;;;;;5107688;27;20055;-79
2023/12/13 03:36:27;;;;;;;0.20;0.20;;;8.30;99.90;;;;;;5103409;28;20135;-78
2023/12/13 03:38:53;;;;;;;0.45;0.45;;;8.50;99.90;;;;;;5106514;28;20063;-79
2023/12/13 03:41:19;;;;;;;0.20;0.20;;;8.30;99.90;;;;;;5106558;28;20545;-79
2023/12/13 03:43:45;;;;;;;0.20;0.20;;;8.30;99.90;;;;;;5100458;28;20084;-78
2023/12/13 03:46:10;;;;;;;0.20;0.20;;;8.30;99.90;;;;;;5106046;28;20032;-78
2023/12/13 03:48:36;;;;;;;0.10;0.10;;;8.30;99.90;;;;;;5101301;28;20044;-78
2023/12/13 03:51:02;;;;;;;0.20;0.20;;;8.30;99.90;;;;;;5107174;28;20043;-78
2023/12/13 03:53:28;;;;;;;0.20;0.20;;;8.30;99.90;;;;;;5104193;28;20556;-78
2023/12/13 03:55:54;;;;;;;0.20;0.20;;;8.30;99.90;;;;;;5111027;27;20420;-78
2023/12/13 03:58:20;;;;;;;0.20;0.20;;;8.30;99.90;;;;;;5118020;27;20084;-78
2023/12/13 04:00:46;;;;;;;0.20;0.20;;;8.40;99.90;;;;;;5107208;28;20055;-78
2023/12/13 04:03:11;;;;;;;0.10;0.10;;;8.30;99.90;;;;;;5107791;28;20047;-79
2023/12/13 04:05:37;;;;;;;0.20;0.20;;;8.40;99.90;;;;;;5109014;28;20112;-78
2023/12/13 04:08:03;;;;;;;0.20;0.20;;;8.30;99.90;;;;;;5104676;28;20071;-78
2023/12/13 04:10:29;;;;;;;0.17;0.17;;;8.30;99.90;;;;;;5108461;28;20090;-79
2023/12/13 04:12:54;;;;;;;0.20;0.20;;;8.30;99.90;;;;;;5108033;28;20395;-79
2023/12/13 04:15:20;;;;;;;0.20;0.20;;;8.30;99.90;;;;;;5105239;28;20039;-78
2023/12/13 04:17:46;;;;;;;0.20;0.20;;;8.30;99.90;;;;;;5107177;28;20399;-78
2023/12/13 04:20:12;;;;;;;0.20;0.20;;;8.30;99.90;;;;;;5106627;28;20080;-79
2023/12/13 04:22:37;;;;;;;0.20;0.20;;;8.40;99.90;;;;;;5111099;27;20510;-79
2023/12/13 04:25:03;;;;;;;0.20;0.20;;;8.40;99.90;;;;;;5110142;27;20166;-79
2023/12/13 04:27:29;;;;;;;0.20;0.20;;;8.30;99.90;;;;;;5105385;28;20032;-79
2023/12/13 04:29:55;;;;;;;0.20;0.20;;;8.30;99.90;;;;;;5107190;28;20502;-79
2023/12/13 04:32:20;;;;;;;0.20;0.20;;;8.30;99.90;;;;;;5106328;28;20100;-78
2023/12/13 04:34:46;;;;;;;0.20;0.20;;;8.40;99.90;;;;;;5107321;28;20069;-79
2023/12/13 04:37:12;;;;;;;0.20;0.20;;;8.30;99.90;;;;;;5105861;28;20414;-79
2023/12/13 04:39:38;;;;;;;0.20;0.20;;;8.30;99.90;;;;;;5109054;28;20053;-79
2023/12/13 04:42:03;;;;;;;0.20;0.20;;;8.40;99.90;;;;;;5107966;28;20160;-78
2023/12/13 04:44:30;;;;;;;0.20;0.20;;;8.30;99.90;;;;;;5101519;28;20213;-79
2023/12/13 04:46:57;;;;;;;0.20;0.20;;;8.40;99.90;;;;;;5105028;28;20047;-79
2023/12/13 04:49:23;;;;;;;0.20;0.20;;;8.40;99.90;;;;;;5096875;28;20128;-77
2023/12/13 04:51:48;;;;;;;0.20;0.20;;;8.30;99.90;;;;;;5094335;28;20139;-78
2023/12/13 04:54:14;;;;;;;0.20;0.20;;;8.40;99.90;;;;;;5107666;28;20054;-78
2023/12/13 04:56:40;;;;;;;0.15;0.15;;;8.40;99.90;;;;;;5106787;28;20455;-77
2023/12/13 04:59:06;;;;;;;0.10;0.10;;;8.40;99.90;;;;;;5107890;28;20108;-77
2023/12/13 05:01:31;;;;;;;0.20;0.20;;;8.30;99.90;;;;;;5105237;28;20055;-78
2023/12/13 05:03:57;;;;;;;0.20;0.20;;;8.30;99.90;;;;;;5101675;28;20048;-77
2023/12/13 05:06:23;;;;;;;0.20;0.20;;;8.40;99.90;;;;;;5104467;28;20043;-78
2023/12/13 05:08:48;;;;;;;0.20;0.20;;;8.40;99.90;;;;;;5106770;28;20050;-78
2023/12/13 05:11:14;;;;;;;0.20;0.20;;;8.40;99.90;;;;;;5106160;28;20047;-77
2023/12/13 05:13:40;;;;;;;0.20;0.20;;;8.40;99.90;;;;;;5107319;28;20042;-77
2023/12/13 05:16:07;;;;;;;0.20;0.20;;;8.40;99.90;;;;;;5121636;28;20081;-77
2023/12/13 05:18:32;;;;;;;0.10;0.10;;;8.40;99.90;;;;;;5101249;28;20143;-78
2023/12/13 05:20:58;;;;;;;0.20;0.20;;;8.40;99.90;;;;;;5110155;28;20114;-77
2023/12/13 05:23:26;;;;;;;0.30;0.30;;;8.40;99.90;;;;;;5108459;28;20074;-77
2023/12/13 05:25:52;;;;;;;0.17;0.17;;;8.40;99.90;;;;;;5110740;28;20071;-78
2023/12/13 05:28:17;;;;;;;0.20;0.20;;;8.40;99.90;;;;;;5110955;28;20097;-78
2023/12/13 05:30:43;;;;;;;0.20;0.20;;;8.40;99.90;;;;;;5110446;28;20043;-77
2023/12/13 05:33:09;;;;;;;0.20;0.20;;;8.40;99.90;;;;;;5110224;28;20458;-77
2023/12/13 05:35:35;;;;;;;0.20;0.20;;;8.40;99.90;;;;;;5111467;28;20042;-80
2023/12/13 05:38:01;;;;;;;0.20;0.20;;;8.40;99.90;;;;;;5106087;28;20475;-80
2023/12/13 05:40:27;;;;;;;0.20;0.20;;;8.40;99.90;;;;;;5111100;28;20039;-77
2023/12/13 05:42:53;;;;;;;0.13;0.13;;;8.30;99.90;;;;;;5110596;28;20039;-81
2023/12/13 05:45:19;;;;;;;0.20;0.20;;;8.40;99.90;;;;;;5101000;28;20040;-80
2023/12/13 05:47:44;;;;;;;0.20;0.20;;;8.40;99.90;;;;;;5115962;27;20043;-80
2023/12/13 05:50:10;;;;;;;0.20;0.20;;;8.40;99.90;;;;;;5107754;28;20131;-80
2023/12/13 05:52:39;;;;;;;0.20;0.20;;;8.40;99.90;;;;;;5118754;27;20040;-80
2023/12/13 05:55:06;;;;;;;0.20;0.20;;;8.40;99.90;;;;;;5091522;28;20039;-80
2023/12/13 05:57:32;;;;;;;0.20;0.20;;;8.40;99.90;;;;;;5101369;28;20050;-82
2023/12/13 05:59:57;;;;;;;0.20;0.20;;;8.40;99.90;;;;;;5106904;28;20051;-79
2023/12/13 06:02:24;;;;;;;0.20;0.20;;;8.40;99.90;;;;;;5108371;27;20059;-81
2023/12/13 06:04:52;;;;;;;0.20;0.20;;;8.40;99.90;;;;;;5100781;27;20076;-81
2023/12/13 06:07:17;;;;;;;0.20;0.20;;;8.40;99.90;;;;;;5103654;28;20058;-81
2023/12/13 06:09:43;;;;;;;0.20;0.20;;;8.40;99.90;;;;;;5105793;27;20473;-81
2023/12/13 06:12:09;;;;;;;0.20;0.20;;;8.40;99.90;;;;;;5104175;28;20044;-82
2023/12/13 06:14:35;;;;;;;0.20;0.20;;;8.40;99.90;;;;;;5102134;28;20130;-81
2023/12/13 06:17:01;;;;;;;0.15;0.15;;;8.40;99.90;;;;;;5108503;27;20126;-81
2023/12/13 06:19:29;;;;;;;0.20;0.20;;;8.50;99.90;;;;;;5108136;28;20043;-79
2023/12/13 06:21:56;;;;;;;0.10;0.10;;;8.30;99.90;;;;;;5107888;27;20056;-81
2023/12/13 06:24:22;;;;;;;0.20;0.20;;;8.40;99.90;;;;;;5105860;28;20477;-80
2023/12/13 06:26:48;;;;;;;0.20;0.20;;;8.40;99.90;;;;;;5107869;28;20115;-80
2023/12/13 06:29:14;;;;;;;0.20;0.20;;;8.40;99.90;;;;;;5107715;27;20048;-81
2023/12/13 06:31:40;;;;;;;0.20;0.20;;;8.40;99.90;;;;;;5107663;27;20044;-80
2023/12/13 06:34:06;;;;;;;0.20;0.20;;;8.40;99.90;;;;;;5104083;27;20394;-80
2023/12/13 06:36:31;;;;;;;0.20;0.20;;;8.40;99.90;;;;;;5114686;27;20051;-81
2023/12/13 06:38:57;;;;;;;0.20;0.20;;;8.40;99.90;;;;;;5112384;27;20512;-81
2023/12/13 06:41:22;;;;;;;0.20;0.20;;;8.40;99.90;;;;;;5108519;28;20057;-80
2023/12/13 06:43:48;;;;;;;0.20;0.20;;;8.40;99.90;;;;;;5107977;27;20476;-80
2023/12/13 06:46:14;;;;;;;0.20;0.20;;;8.40;99.90;;;;;;5107892;27;20044;-80
2023/12/13 06:48:40;;;;;;;0.10;0.10;;;8.40;99.90;;;;;;5107326;28;20043;-81
2023/12/13 06:51:07;;;;;;;0.17;0.17;;;8.40;99.90;;;;;;5102532;28;20383;-81
2023/12/13 06:53:37;;;;;;;0.20;0.20;;;8.40;99.90;;;;;;5109139;28;20083;-81
2023/12/13 06:56:03;;;;;;;0.10;0.10;;;8.40;99.90;;;;;;5109499;28;20420;-81
2023/12/13 06:58:28;;;;;;;0.20;0.20;;;8.40;99.90;;;;;;5096167;28;20096;-79
2023/12/13 07:00:54;;;;;;;0.20;0.20;;;8.40;99.90;;;;;;5104527;28;20047;-79
2023/12/13 07:03:20;;;;;;;0.20;0.20;;;8.40;99.90;;;;;;5103275;28;20100;-79
2023/12/13 07:05:46;;;;;;;0.20;0.20;;;8.40;99.90;;;;;;5108865;27;20423;-80
2023/12/13 07:08:12;;;;;;;0.20;0.20;;;8.50;99.90;;;;;;5112310;27;20100;-80
2023/12/13 07:10:38;;;;;;;0.20;0.20;;;8.50;99.90;;;;;;5100578;27;20078;-80
2023/12/13 07:13:04;;;;;;;0.20;0.20;;;8.40;99.90;;;;;;5114280;27;20040;-79
2023/12/13 07:15:30;;;;;;;0.17;0.17;;;8.40;99.90;;;;;;5105024;28;20509;-79
2023/12/13 07:17:56;;;;;;;0.20;0.20;;;8.40;99.90;;;;;;5101203;28;20035;-79
2023/12/13 07:20:21;;;;;;;0.20;0.20;;;8.40;99.90;;;;;;5107137;28;20130;-79
2023/12/13 07:22:50;;;;;;;0.10;0.10;;;8.40;99.90;;;;;;5107802;28;20050;-79
2023/12/13 07:25:16;;;;;;;0.20;0.20;;;8.40;99.90;;;;;;5107835;28;20047;-79
2023/12/13 07:27:41;;;;;;;0.17;0.17;;;8.30;99.90;;;;;;5117486;27;20058;-78
2023/12/13 07:30:07;;;;;;;0.20;0.20;;;8.40;99.90;;;;;;5114306;27;20047;-78
2023/12/13 07:32:33;;;;;;;0.10;0.10;;;8.30;99.90;;;;;;5108057;28;20050;-77
2023/12/13 07:34:59;;;;;;;0.28;0.20;;;8.40;99.90;;;;;;5109388;28;20043;-77
2023/12/13 07:37:25;;;;;;;0.15;0.15;;;8.30;99.90;;;;;;5109881;28;20074;-76
2023/12/13 07:39:51;;;;;;;0.20;0.20;;;8.30;99.90;;;;;;5108466;28;20824;-76
2023/12/13 07:42:16;;;;;;;0.20;0.20;;;8.40;99.90;;;;;;5108877;28;20100;-77
2023/12/13 07:44:43;;;;;;;0.13;0.13;;;8.40;99.90;;;;;;5109539;28;20050;-78
2023/12/13 07:47:09;;;;;;;0.10;0.10;;;8.40;99.90;;;;;;5104921;28;20039;-77
2023/12/13 07:49:36;;;;;;;0.10;0.10;;;8.40;99.90;;;;;;5119027;27;20050;-77
2023/12/13 07:52:04;;;;;;;0.20;0.20;;;8.70;99.90;;;;;;5107618;28;20040;-78
2023/12/13 07:54:29;;;;;;;0.10;0.10;;;8.50;99.90;;;;;;5108282;28;20532;-77
2023/12/13 07:56:55;;;;;;;0.20;0.20;;;8.50;99.90;;;;;;5107513;28;20044;-78
2023/12/13 07:59:21;;;;;;;0.20;0.20;;;8.50;99.90;;;;;;5100674;28;20127;-78
2023/12/13 08:01:46;;;;;;;0.20;0.20;;;8.60;99.90;;;;;;5107835;27;20455;-77
2023/12/13 08:04:12;;;;;;;0.20;0.20;;;8.50;99.90;;;;;;5104816;27;20078;-78
2023/12/13 08:06:38;;;;;;;0.20;0.20;;;8.50;99.90;;;;;;5104993;28;20471;-78
2023/12/13 08:09:03;;;;;;;0.20;0.20;;;8.50;99.90;;;;;;5084149;28;20121;-78
2023/12/13 08:11:29;;;;;;;0.20;0.20;;;8.60;99.90;;;;;;5124446;27;20058;-79
2023/12/13 08:13:55;;;;;;;0.20;0.20;;;8.50;99.90;;;;;;5105882;28;20039;-79
2023/12/13 08:16:24;;;;;;;0.20;0.20;;;8.60;99.90;;;;;;5097722;28;20085;-79
2023/12/13 08:18:50;;;;;;;0.20;0.20;;;8.60;99.90;;;;;;5111223;27;20035;-79
2023/12/13 08:21:15;;;;;;;0.20;0.20;;;8.60;99.90;;;;;;5107578;28;20491;-79
2023/12/13 08:23:41;;;;;;;0.20;0.20;;;8.60;99.90;;;;;;5104176;28;20051;-80
2023/12/13 08:26:10;;;;;;;0.20;0.20;;;8.60;99.90;;;;;;5107012;28;20047;-81
2023/12/13 08:28:39;;;;;;;0.20;0.20;;;8.60;99.90;;;;;;5106223;28;20044;-79
2023/12/13 08:31:05;;;;;;;0.10;0.10;;;8.60;99.90;;;;;;5106988;28;20044;-80
2023/12/13 08:33:30;;;;;;;0.20;0.20;;;8.60;99.90;;;;;;5106806;28;20054;-78
2023/12/13 08:35:56;;;;;;;0.20;0.20;;;8.60;99.90;;;;;;5108290;28;20052;-79
2023/12/13 08:38:23;;;;;;;0.20;0.20;;;8.60;99.90;;;;;;5108664;28;20039;-79
2023/12/13 08:40:48;;;;;;;0.20;0.20;;;8.70;99.90;;;;;;5106333;27;20055;-79
2023/12/13 08:43:14;;;;;;;0.10;0.10;;;8.70;99.90;;;;;;5099745;27;20458;-79
2023/12/13 08:45:41;;;;;;;0.17;0.17;;;8.70;99.90;;;;;;5092848;28;20089;-79
2023/12/13 08:48:07;;;;;;;0.20;0.20;;;8.70;99.90;;;;;;5092576;28;20038;-79
2023/12/13 08:50:33;;;;;;;0.20;0.20;;;8.70;99.90;;;;;;5101565;28;20445;-79
2023/12/13 08:52:59;;;;;;;0.10;0.10;;;8.70;99.90;;;;;;5099790;28;20514;-80
2023/12/13 08:55:35;;;;;;;0.20;0.20;;;8.70;99.90;;;;;;5103096;27;20472;-80
2023/12/13 08:58:11;;;;;;;0.20;0.20;;;8.70;99.90;;;;;;5101196;28;20409;-80
2023/12/13 09:00:37;;;;;;;0.20;0.20;;;8.70;99.90;;;;;;5089208;28;20051;-79
2023/12/13 09:03:03;;;;;;;0.20;0.20;;;8.80;99.90;;;;;;5106643;28;20055;-79
2023/12/13 09:05:30;;;;;;;0.20;0.20;;;8.80;99.90;;;;;;5106292;28;20105;-79
2023/12/13 09:07:56;;;;;;;0.20;0.20;;;8.90;99.90;;;;;;5099516;28;20472;-80
2023/12/13 09:10:22;;;;;;;0.20;0.20;;;8.80;99.90;;;;;;5106374;28;20039;-81
2023/12/13 09:12:49;;;;;;;0.10;0.10;;;8.80;99.90;;;;;;5100603;28;20044;-78
2023/12/13 09:15:17;;;;;;;0.20;0.20;;;8.80;99.90;;;;;;5108881;28;20122;-79
2023/12/13 09:17:45;;;;;;;0.10;0.10;;;8.90;99.90;;;;;;5107294;28;20098;-79
2023/12/13 09:20:14;;;;;;;0.20;0.20;;;8.80;99.90;;;;;;5106783;28;20070;-80
2023/12/13 09:22:43;;;;;;;0.10;0.10;;;8.90;99.90;;;;;;5104559;28;20066;-79
2023/12/13 09:25:14;;;;;;;0.20;0.20;;;8.90;99.90;;;;;;5100308;28;20054;-76
2023/12/13 09:27:44;;;;;;;0.20;0.20;;;8.60;99.90;;;;;;5107246;28;20056;-78
2023/12/13 09:30:11;;;;;;;0.15;0.15;;;8.90;99.90;;;;;;5116161;27;20038;-79
2023/12/13 09:32:38;;;;;;;0.20;0.20;;;8.90;99.90;;;;;;5128148;28;20047;-78
2023/12/13 09:35:04;;;;;;;0.10;0.10;;;8.90;99.90;;;;;;5113574;28;20052;-79
2023/12/13 09:37:30;;;;;;;0.10;0.10;;;9.00;99.90;;;;;;5108570;28;20065;-76
2023/12/13 09:39:56;;;;;;;0.20;0.20;;;9.10;99.90;;;;;;5108919;28;20054;-77
2023/12/13 09:42:24;;;;;;;0.20;0.20;;;9.00;99.90;;;;;;5110355;27;20122;-79
2023/12/13 09:44:49;;;;;;;0.20;0.20;;;9.70;99.90;;;;;;5127429;28;20043;-76
2023/12/13 09:47:17;;;;;;;0.20;0.20;;;9.00;99.90;;;;;;5107636;28;20040;-79
2023/12/13 09:49:44;;;;;;;0.20;0.20;;;9.10;99.90;;;;;;5097241;28;20093;-76
2023/12/13 09:52:11;;;;;;;0.20;0.20;;;9.10;99.90;;;;;;5098368;28;20078;-76
2023/12/13 09:54:39;;;;;;;0.20;0.20;;;9.10;99.90;;;;;;5102070;28;20131;-79
2023/12/13 09:57:05;;;;;;;0.20;0.20;;;9.20;99.90;;;;;;5096382;28;20082;-78
2023/12/13 10:02:12;;;;;;;0.10;0.10;;;9.20;99.90;;;;;;5144954;22;20079;-76
2023/12/13 10:04:38;;;;;;;0.10;0.10;;;9.70;99.90;;;;;;5055854;28;20123;-76
2023/12/13 10:07:08;;;;;;;0.10;0.10;;;9.20;99.90;;;;;;5061069;28;20379;-76
2023/12/13 10:09:34;;;;;;;0.17;0.17;;;9.30;99.90;;;;;;5061727;28;20157;-78
2023/12/13 10:12:00;;;;;;;0.10;0.10;;;9.30;99.90;;;;;;5069038;28;20041;-77
2023/12/13 10:14:26;;;;;;;0.20;0.20;;;9.30;99.90;;;;;;5050729;28;20063;-77
2023/12/13 10:16:52;;;;;;;0.13;0.13;;;9.40;99.90;;;;;;5049437;28;20044;-77
2023/12/13 10:19:18;;;;;;;0.20;0.20;;;9.40;99.90;;;;;;5049815;28;20048;-77
2023/12/13 10:21:46;;;;;;;0.20;0.20;;;9.50;99.90;;;;;;5050104;28;20406;-77
2023/12/13 10:24:12;;;;;;;0.10;0.10;;;9.40;99.90;;;;;;5049386;28;20073;-77
2023/12/13 10:26:39;;;;;;;0.20;0.20;;;9.40;99.90;;;;;;5066927;28;20499;-77
2023/12/13 10:29:04;;;;;;;0.20;0.20;;;9.40;99.90;;;;;;5069199;28;20487;-77
2023/12/13 10:31:37;;;;;;;0.10;0.10;;;9.40;99.90;;;;;;5070594;28;20055;-77
2023/12/13 10:34:02;;;;;;;0.13;0.13;;;9.50;99.90;;;;;;5068555;28;20044;-76
2023/12/13 10:36:29;;;;;;;0.20;0.20;;;9.50;99.90;;;;;;5051258;28;20044;-77
2023/12/13 10:38:56;;;;;;;0.10;0.10;;;9.50;99.90;;;;;;5059583;28;20564;-77
2023/12/13 10:41:26;;;;;;;0.15;0.15;;;9.50;99.90;;;;;;5072209;28;20098;-77
2023/12/13 10:43:57;;;;;;;0.10;0.10;;;9.50;99.90;;;;;;5069242;28;20631;-77
2023/12/13 10:46:27;;;;;;;0.20;0.20;;;9.50;99.90;;;;;;5051570;28;20119;-77
2023/12/13 10:48:54;;;;;;;0.20;0.20;;;9.70;99.90;;;;;;5059432;28;20119;-77
2023/12/13 10:51:22;;;;;;;0.20;0.20;;;9.60;99.90;;;;;;5062105;28;20059;-76
2023/12/13 10:53:48;;;;;;;0.20;0.20;;;9.60;99.90;;;;;;5055654;28;20549;-77
2023/12/13 10:56:15;;;;;;;0.20;0.20;;;9.70;99.90;;;;;;5049718;28;20037;-76
2023/12/13 10:58:44;;;;;;;0.20;0.20;;;9.60;99.90;;;;;;5050688;28;20052;-77
2023/12/13 11:01:11;;;;;;;0.20;0.20;;;10.10;99.90;;;;;;5067574;28;20491;-77
2023/12/13 11:04:01;;;;;;;0.13;0.13;;;9.70;99.90;;;;;;5070366;28;20054;-77
2023/12/13 11:06:27;;;;;;;0.20;0.20;;;9.70;99.90;;;;;;5073235;28;20469;-77
2023/12/13 11:08:53;;;;;;;0.10;0.10;;;9.70;99.90;;;;;;5065566;28;20087;-77
2023/12/13 11:11:19;;;;;;;0.20;0.20;;;10.10;99.90;;;;;;5052625;28;20037;-77
2023/12/13 11:13:48;;;;;;;0.20;0.20;;;9.70;99.90;;;;;;5050095;28;20364;-77
2023/12/13 11:16:25;;;;;;;0.20;0.20;;;9.70;99.90;;;;;;5058297;28;20044;-77
2023/12/13 11:18:53;;;;;;;0.20;0.20;;;9.70;99.90;;;;;;5055881;28;20044;-77
2023/12/13 11:21:32;;;;;;;0.17;0.17;;;10.20;99.90;;;;;;5064915;28;20055;-76
2023/12/13 11:24:09;;;;;;;0.20;0.20;;;9.70;99.90;;;;;;5064773;28;20043;-77
2023/12/13 11:26:47;;;;;;;0.20;0.20;;;9.70;99.90;;;;;;5075333;28;20580;-77
2023/12/13 11:29:20;;;;;;;0.10;0.10;;;9.70;99.90;;;;;;5066430;28;20388;-77
2023/12/13 11:31:50;;;;;;;0.15;0.15;;;9.60;99.90;;;;;;5067678;28;20066;-78
2023/12/13 11:34:17;;;;;;;0.20;0.20;;;9.60;99.90;;;;;;5067753;28;20084;-77
2023/12/13 11:36:44;;;;;;;0.20;0.20;;;9.60;99.90;;;;;;5069229;28;20498;-78
2023/12/13 11:39:10;;;;;;;0.20;0.20;;;9.70;99.90;;;;;;5062576;28;20675;-77
2023/12/13 11:41:36;;;;;;;0.20;0.20;;;9.60;99.90;;;;;;5066214;28;20049;-79
2023/12/13 11:44:03;;;;;;;0.20;0.20;;;9.80;99.90;;;;;;5062798;28;20470;-79
2023/12/13 11:46:30;;;;;;;0.20;0.20;;;9.60;99.90;;;;;;5054311;28;20110;-77
2023/12/13 11:48:56;;;;;;;0.20;0.20;;;9.60;99.90;;;;;;5086754;28;20052;-75
2023/12/13 11:51:22;;;;;;;0.13;0.13;;;9.60;99.90;;;;;;5061090;28;20373;-75
2023/12/13 11:53:51;;;;;;;0.10;0.10;;;9.60;99.90;;;;;;5064423;28;20762;-75
2023/12/13 11:56:18;;;;;;;0.20;0.20;;;9.60;99.90;;;;;;5063223;28;20052;-75
2023/12/13 11:58:44;;;;;;;0.20;0.20;;;9.60;99.90;;;;;;5061317;28;20104;-75
2023/12/13 12:01:12;;;;;;;0.10;0.10;;;9.60;99.90;;;;;;5057123;28;20060;-75
2023/12/13 12:03:37;;;;;;;0.10;0.10;;;9.70;99.90;;;;;;5058598;28;20079;-75
2023/12/13 12:06:16;;;;;;;0.20;0.20;;;9.60;99.90;;;;;;5084417;28;20040;-75
2023/12/13 12:08:42;;;;;;;0.20;0.20;;;9.50;99.90;;;;;;5051449;28;20401;-75
2023/12/13 12:11:08;;;;;;;0.20;0.20;;;9.50;99.90;;;;;;5067632;28;20052;-75
2023/12/13 12:13:33;;;;;;;0.10;0.10;;;9.50;99.90;;;;;;5071125;28;20037;-75
2023/12/13 12:16:00;;;;;;;0.20;0.20;;;9.80;99.90;;;;;;5067670;28;20044;-76
2023/12/13 12:18:26;;;;;;;0.20;0.20;;;9.50;99.90;;;;;;5066013;28;20040;-75
2023/12/13 12:20:52;;;;;;;0.20;0.20;;;9.90;99.90;;;;;;5062728;28;20040;-75
2023/12/13 12:23:18;;;;;;;0.20;0.20;;;9.50;99.90;;;;;;5055299;28;20048;-75
2023/12/13 12:25:44;;;;;;;0.20;0.20;;;9.50;99.90;;;;;;5064985;28;20209;-74
2023/12/13 12:28:11;;;;;;;0.10;0.10;;;9.50;99.90;;;;;;5063398;28;20387;-74
2023/12/13 12:30:39;;;;;;;0.20;0.20;;;9.40;99.90;;;;;;5064151;28;20040;-76
2023/12/13 12:33:05;;;;;;;0.20;0.20;;;9.40;99.90;;;;;;5067077;28;20155;-74
2023/12/13 12:35:31;;;;;;;0.20;0.20;;;10.20;99.90;;;;;;5059971;28;20140;-74
2023/12/13 12:37:57;;;;;;;0.20;0.20;;;9.50;99.90;;;;;;5066522;28;20147;-76
2023/12/13 12:40:22;;;;;;;0.20;0.20;;;9.40;99.90;;;;;;5065368;28;20041;-74
2023/12/13 12:42:48;;;;;;;0.20;0.20;;;9.20;99.90;;;;;;5073975;28;20044;-74
2023/12/13 12:45:14;;;;;;;0.20;0.20;;;9.30;99.90;;;;;;5071264;28;20049;-74
2023/12/13 12:47:39;;;;;;;0.20;0.20;;;9.10;99.90;;;;;;5064025;28;20059;-75
2023/12/13 12:50:06;;;;;;;0.20;0.20;;;9.10;99.90;;;;;;5063618;28;20064;-74
2023/12/13 12:52:32;;;;;;;0.20;0.20;;;9.00;99.90;;;;;;5054159;28;20356;-76
2023/12/13 12:54:57;;;;;;;0.20;0.20;;;9.00;99.90;;;;;;5053873;28;20064;-74
2023/12/13 12:57:23;;;;;;;0.20;0.20;;;9.00;99.90;;;;;;5057069;28;20032;-74